Time;durP1;ratioP1;P1;durP2;ratioP2;P2;SDS_P1;SDS_P2;PMS_P1;PMS_P2;Temp;Humidity;BMP_temperature;BMP_pressure;BME280_temperature;BME280_humidity;BME280_pressure;Samples;Min_cycle;Max_cycle;Signal;HPM_P1;HPM_P2
2022/10/01 00:03:54;;;;;;;40.83;23.92;;;;;;;11.08;100.00;98837.25;4091136;85;21072;-86
2022/10/01 00:09:55;;;;;;;35.50;22.62;;;;;;;11.07;100.00;98835.70;4092975;85;21026;-86
2022/10/01 00:15:58;;;;;;;44.83;23.73;;;;;;;11.01;100.00;98828.98;4087746;85;21576;-85
2022/10/01 00:22:01;;;;;;;36.83;22.77;;;;;;;11.04;100.00;98818.63;4094806;85;21034;-86
2022/10/01 00:28:02;;;;;;;37.90;22.70;;;;;;;11.06;100.00;98821.78;4090309;85;21033;-86
2022/10/01 00:34:05;;;;;;;32.58;21.65;;;;;;;11.00;100.00;98817.26;4089411;85;21030;-86
2022/10/01 00:40:10;;;;;;;34.13;21.60;;;;;;;11.02;100.00;98811.39;4092856;85;21562;-86
2022/10/01 00:46:20;;;;;;;34.50;22.02;;;;;;;10.99;100.00;98812.16;4093050;85;21605;-85
2022/10/01 00:52:27;;;;;;;32.30;20.80;;;;;;;10.90;100.00;98813.05;4047803;85;21747;-86
2022/10/01 00:58:30;;;;;;;31.57;19.98;;;;;;;10.87;100.00;98815.19;4023106;87;21016;-86
2022/10/01 01:04:32;;;;;;;30.17;19.87;;;;;;;10.91;100.00;98800.38;4025095;87;21527;-86
2022/10/01 01:10:56;;;;;;;31.65;22.00;;;;;;;10.87;100.00;98794.65;4021392;86;21487;-86
2022/10/01 01:17:07;;;;;;;32.20;21.97;;;;;;;10.81;100.00;98794.23;4024691;87;21063;-85
2022/10/01 01:23:40;;;;;;;33.23;22.27;;;;;;;10.68;100.00;98809.38;4022912;87;21131;-86
2022/10/01 01:30:09;;;;;;;32.60;21.60;;;;;;;10.69;100.00;98809.61;4022691;87;21024;-86
2022/10/01 01:36:19;;;;;;;28.67;18.48;;;;;;;10.74;100.00;98810.59;4024408;87;21628;-85
2022/10/01 01:42:35;;;;;;;32.80;17.87;;;;;;;10.78;100.00;98819.64;4023255;87;21834;-84
2022/10/01 01:48:40;;;;;;;33.28;21.27;;;;;;;10.83;100.00;98832.98;4026256;87;21095;-84
2022/10/01 01:54:48;;;;;;;30.82;20.55;;;;;;;10.87;100.00;98824.20;4042365;86;21839;-84
2022/10/01 02:00:53;;;;;;;29.77;19.95;;;;;;;10.89;100.00;98823.24;4042227;86;21043;-83
2022/10/01 02:07:31;;;;;;;31.25;21.23;;;;;;;10.85;100.00;98834.73;4040446;86;21024;-84
2022/10/01 02:13:45;;;;;;;31.65;19.80;;;;;;;10.83;100.00;98822.03;4047608;86;21077;-85
2022/10/01 02:20:03;;;;;;;31.02;19.48;;;;;;;10.82;100.00;98822.41;4046332;86;20964;-85
2022/10/01 02:26:14;;;;;;;28.75;18.35;;;;;;;10.78;100.00;98816.11;4009215;86;21929;-85
2022/10/01 02:32:17;;;;;;;28.62;19.35;;;;;;;10.78;100.00;98833.91;4048566;86;20996;-85
2022/10/01 02:38:23;;;;;;;30.88;18.67;;;;;;;10.74;100.00;98838.58;4042160;86;21103;-85
2022/10/01 02:44:36;;;;;;;33.60;18.60;;;;;;;10.70;100.00;98843.22;4044737;86;21575;-84
2022/10/01 02:50:43;;;;;;;29.25;18.05;;;;;;;10.67;100.00;98837.94;4047136;86;21059;-85
2022/10/01 03:03:05;;;;;;;27.22;17.85;;;;;;;10.59;100.00;98854.09;4042284;86;21065;-85
2022/10/01 03:09:07;;;;;;;26.52;17.82;;;;;;;10.61;100.00;98853.14;4064015;86;46179;-85
2022/10/01 03:15:11;;;;;;;27.58;19.27;;;;;;;10.49;100.00;98867.09;4016993;88;22261;-84
2022/10/01 03:21:13;;;;;;;30.32;18.23;;;;;;;10.38;100.00;98849.78;4004717;88;21542;-85
2022/10/01 03:27:17;;;;;;;31.07;20.45;;;;;;;10.43;100.00;98848.08;4010453;86;21083;-85
2022/10/01 03:33:18;;;;;;;29.48;20.15;;;;;;;10.36;100.00;98845.29;4013302;88;21034;-85
2022/10/01 03:39:19;;;;;;;31.20;19.87;;;;;;;10.36;100.00;98843.92;4008763;87;21653;-85
2022/10/01 03:52:41;;;;;;;28.73;18.60;;;;;;;10.42;100.00;98855.30;4036857;85;21015;-85
2022/10/01 03:59:02;;;;;;;34.18;19.80;;;;;;;10.46;100.00;98852.03;4007167;87;21530;-85
2022/10/01 04:05:04;;;;;;;30.12;19.52;;;;;;;10.51;100.00;98841.51;4006035;87;21026;-85
2022/10/01 04:11:07;;;;;;;32.50;21.27;;;;;;;10.54;100.00;98828.44;4074758;86;21035;-85
2022/10/01 04:17:08;;;;;;;33.00;20.95;;;;;;;10.52;100.00;98828.02;4055424;87;21597;-85
2022/10/01 04:23:09;;;;;;;41.15;22.75;;;;;;;10.41;100.00;98822.27;4081088;86;21009;-85
2022/10/01 04:29:11;;;;;;;33.88;21.35;;;;;;;10.45;100.00;98808.81;4075970;86;21535;-85
2022/10/01 04:35:13;;;;;;;45.70;28.32;;;;;;;10.50;100.00;98816.68;4074521;86;21053;-85
2022/10/01 04:41:14;;;;;;;45.23;28.50;;;;;;;10.47;100.00;98817.44;4074232;86;21090;-86
2022/10/01 04:47:18;;;;;;;45.52;26.02;;;;;;;10.47;100.00;98825.66;4076600;86;21114;-86
2022/10/01 04:53:19;;;;;;;43.85;25.70;;;;;;;10.52;100.00;98820.41;4102189;86;21061;-86
2022/10/01 04:59:51;;;;;;;46.42;25.68;;;;;;;10.53;100.00;98807.71;4061309;86;21063;-86
2022/10/01 05:05:52;;;;;;;41.30;24.32;;;;;;;10.49;100.00;98812.95;4061235;86;21053;-85
2022/10/01 05:11:54;;;;;;;45.80;26.55;;;;;;;10.56;100.00;98819.84;4073436;86;21082;-85
2022/10/01 05:17:56;;;;;;;47.88;27.22;;;;;;;10.57;100.00;98816.73;4062887;86;21478;-85
2022/10/01 05:23:59;;;;;;;48.60;28.10;;;;;;;10.59;100.00;98822.61;4085744;85;21072;-86
2022/10/01 05:30:03;;;;;;;61.55;32.53;;;;;;;10.62;100.00;98819.13;4098722;84;21065;-85
2022/10/01 05:36:05;;;;;;;56.48;31.68;;;;;;;10.64;100.00;98812.69;4090196;84;21045;-85
2022/10/01 05:42:07;;;;;;;53.70;30.37;;;;;;;10.75;100.00;98813.56;4093125;85;21048;-85
2022/10/01 05:48:10;;;;;;;53.40;29.92;;;;;;;10.86;100.00;98833.59;4085211;86;21046;-86
2022/10/01 05:54:12;;;;;;;55.28;29.92;;;;;;;10.93;100.00;98832.26;4155655;83;21481;-86
2022/10/01 06:00:15;;;;;;;56.95;30.80;;;;;;;10.97;100.00;98837.19;4181018;83;21040;-85
2022/10/01 06:06:38;;;;;;;55.67;30.02;;;;;;;11.01;100.00;98826.23;4144744;85;20994;-85
2022/10/01 06:12:42;;;;;;;53.23;29.37;;;;;;;10.99;100.00;98817.64;4163898;84;21092;-86
2022/10/01 06:18:48;;;;;;;54.35;28.42;;;;;;;11.06;100.00;98817.09;4126819;85;21586;-85
2022/10/01 06:24:50;;;;;;;57.58;30.23;;;;;;;11.15;100.00;98812.63;4150914;84;21009;-85
2022/10/01 06:30:51;;;;;;;54.55;30.82;;;;;;;11.20;100.00;98814.25;4159126;85;21016;-85
2022/10/01 06:36:54;;;;;;;64.15;32.73;;;;;;;11.22;100.00;98801.72;4146913;85;21025;-85
2022/10/01 06:42:57;;;;;;;61.75;31.97;;;;;;;11.32;100.00;98798.84;4129901;85;21048;-86
2022/10/01 06:48:58;;;;;;;55.88;30.70;;;;;;;11.31;100.00;98802.76;4198349;85;21780;-84
2022/10/01 06:55:00;;;;;;;56.48;31.45;;;;;;;11.42;100.00;98791.23;4162499;83;21020;-86
2022/10/01 07:01:02;;;;;;;54.20;29.45;;;;;;;11.48;100.00;98795.97;4149073;83;21041;-85
2022/10/01 07:07:06;;;;;;;58.50;30.50;;;;;;;11.56;100.00;98800.92;4144389;85;20993;-85
2022/10/01 07:13:12;;;;;;;51.53;29.23;;;;;;;11.61;100.00;98782.70;4190560;85;21096;-85
2022/10/01 07:19:14;;;;;;;51.90;29.63;;;;;;;11.65;100.00;98792.53;4134009;85;21021;-85
2022/10/01 07:25:16;;;;;;;52.03;27.87;;;;;;;11.66;100.00;98785.90;4160314;85;21024;-85
2022/10/01 07:31:18;;;;;;;45.60;27.05;;;;;;;11.72;100.00;98774.75;4147020;84;21555;-86
2022/10/01 07:37:20;;;;;;;54.95;29.87;;;;;;;11.79;100.00;98769.27;4147120;85;21068;-85
2022/10/01 07:43:36;;;;;;;55.75;29.20;;;;;;;11.81;100.00;98773.79;4146609;85;21033;-85
2022/10/01 07:49:37;;;;;;;46.95;27.07;;;;;;;11.91;100.00;98764.02;4130590;85;20980;-86
2022/10/01 07:55:41;;;;;;;46.42;27.10;;;;;;;11.99;100.00;98765.03;4084464;85;22005;-85
2022/10/01 08:01:42;;;;;;;43.80;27.00;;;;;;;12.06;100.00;98758.74;4062298;86;21027;-85
2022/10/01 08:07:45;;;;;;;47.15;26.68;;;;;;;12.14;100.00;98758.95;4068890;86;21100;-85
2022/10/01 08:13:46;;;;;;;38.17;23.07;;;;;;;12.22;100.00;98750.34;4077773;86;21057;-85
2022/10/01 08:19:48;;;;;;;36.63;21.93;;;;;;;12.27;100.00;98751.92;4076383;86;21042;-85
2022/10/01 08:25:54;;;;;;;38.02;22.05;;;;;;;12.32;100.00;98752.91;4073997;86;21022;-85
2022/10/01 08:31:57;;;;;;;34.23;20.93;;;;;;;12.36;100.00;98756.42;4075531;85;21057;-84
2022/10/01 08:38:05;;;;;;;32.10;20.30;;;;;;;12.43;100.00;98753.08;4076934;86;21088;-85
2022/10/01 08:44:26;;;;;;;31.95;19.82;;;;;;;12.47;100.00;98744.27;4047710;86;21081;-85
2022/10/01 08:50:52;;;;;;;35.58;19.87;;;;;;;12.55;100.00;98738.18;4072449;86;21053;-85
2022/10/01 08:56:58;;;;;;;32.33;20.45;;;;;;;12.56;100.00;98721.31;4066596;86;21007;-85
2022/10/01 09:03:04;;;;;;;27.60;17.95;;;;;;;12.59;100.00;98710.15;4079365;86;22050;-85
2022/10/01 09:09:36;;;;;;;29.02;19.82;;;;;;;12.67;100.00;98710.30;4069148;86;21083;-85
2022/10/01 09:16:15;;;;;;;32.55;20.05;;;;;;;12.73;100.00;98709.33;4058066;86;21054;-85
2022/10/01 09:22:52;;;;;;;37.13;22.00;;;;;;;12.79;100.00;98708.53;4072460;85;20991;-85
2022/10/01 09:28:54;;;;;;;33.80;21.45;;;;;;;12.81;100.00;98698.52;4064558;86;21015;-85
2022/10/01 09:35:06;;;;;;;32.83;22.42;;;;;;;12.91;100.00;98694.95;4063134;86;21031;-84
2022/10/01 09:41:13;;;;;;;35.88;22.70;;;;;;;12.97;100.00;98692.77;3998574;86;21063;-84
2022/10/01 09:47:21;;;;;;;34.23;20.23;;;;;;;13.05;100.00;98686.69;4064806;85;21077;-85
2022/10/01 09:53:40;;;;;;;30.43;19.98;;;;;;;13.20;100.00;98677.22;4067220;86;21593;-85
2022/10/01 10:00:12;;;;;;;31.37;20.02;;;;;;;13.29;100.00;98681.69;4049213;86;21907;-85
2022/10/01 10:06:14;;;;;;;32.33;20.77;;;;;;;13.33;100.00;98683.81;4031933;85;21077;-85
2022/10/01 10:12:30;;;;;;;34.80;21.85;;;;;;;13.31;100.00;98675.20;4062559;86;21054;-85
2022/10/01 10:18:38;;;;;;;31.45;20.10;;;;;;;13.32;100.00;98674.02;4094790;86;21561;-85
2022/10/01 10:24:40;;;;;;;35.75;22.22;;;;;;;13.34;100.00;98664.78;4067347;86;21122;-85
2022/10/01 10:30:42;;;;;;;34.85;22.22;;;;;;;13.40;100.00;98668.09;4059385;86;21054;-85
2022/10/01 10:36:45;;;;;;;35.08;22.93;;;;;;;13.43;100.00;98652.16;4069827;86;21085;-85
2022/10/01 10:42:50;;;;;;;35.65;23.22;;;;;;;13.49;100.00;98638.77;4071764;86;21615;-84
2022/10/01 10:49:03;;;;;;;35.90;22.17;;;;;;;13.57;100.00;98627.33;4063991;86;21538;-85
2022/10/01 10:55:29;;;;;;;35.45;22.60;;;;;;;13.63;100.00;98623.55;4050389;86;21114;-83
2022/10/01 11:01:31;;;;;;;36.75;22.67;;;;;;;13.69;100.00;98606.80;4069349;86;21064;-84
2022/10/01 11:07:33;;;;;;;35.95;22.25;;;;;;;13.78;100.00;98596.14;4091595;86;20999;-84
2022/10/01 11:14:00;;;;;;;30.27;21.87;;;;;;;13.79;100.00;98578.44;4074392;86;21054;-84
2022/10/01 11:20:48;;;;;;;34.57;22.53;;;;;;;13.83;100.00;98574.46;4075141;86;21068;-84
2022/10/01 11:27:15;;;;;;;31.12;21.57;;;;;;;13.92;100.00;98557.50;4070128;86;21084;-85
2022/10/01 11:33:43;;;;;;;33.58;20.60;;;;;;;13.97;100.00;98550.16;4069507;86;21014;-85
2022/10/01 11:39:50;;;;;;;28.47;19.27;;;;;;;14.03;100.00;98532.80;4079088;85;21649;-84
2022/10/01 11:45:57;;;;;;;29.63;19.17;;;;;;;14.08;100.00;98522.73;4086653;84;21041;-84
2022/10/01 11:52:23;;;;;;;26.00;18.32;;;;;;;14.20;100.00;98521.44;4077322;85;21045;-84
2022/10/01 11:58:57;;;;;;;30.05;18.50;;;;;;;14.34;100.00;98515.01;4058760;86;21578;-84
2022/10/01 12:05:07;;;;;;;22.87;16.87;;;;;;;14.40;100.00;98503.14;4116017;84;40426;-85
2022/10/01 12:11:29;;;;;;;23.60;17.07;;;;;;;14.40;100.00;98493.50;4144748;84;21132;-85
2022/10/01 12:17:54;;;;;;;27.82;17.50;;;;;;;14.42;100.00;98475.98;4065539;84;21043;-84
2022/10/01 12:24:04;;;;;;;23.70;16.50;;;;;;;14.48;100.00;98476.28;4124498;85;21018;-84
2022/10/01 12:30:23;;;;;;;22.60;16.50;;;;;;;14.47;100.00;98468.61;4130546;83;20982;-84
2022/10/01 12:37:09;;;;;;;22.80;16.37;;;;;;;14.57;100.00;98456.69;4124219;85;21054;-84
2022/10/01 12:43:50;;;;;;;19.87;14.85;;;;;;;14.58;100.00;98450.59;4177503;85;20998;-84
2022/10/01 12:50:12;;;;;;;23.47;15.93;;;;;;;14.58;100.00;98440.34;4126089;85;21014;-85
2022/10/01 12:56:41;;;;;;;25.90;16.50;;;;;;;14.56;100.00;98437.23;4145664;84;21033;-85
2022/10/01 13:03:19;;;;;;;23.70;16.32;;;;;;;14.51;100.00;98424.51;4146558;83;21057;-85
2022/10/01 13:16:27;;;;;;;25.12;17.92;;;;;;;14.59;100.00;98403.94;4150180;84;21034;-85
2022/10/01 13:22:44;;;;;;;23.37;17.23;;;;;;;14.62;100.00;98401.73;4153064;84;21076;-85
2022/10/01 13:29:04;;;;;;;;;;;;;;;14.62;100.00;98402.52;4147596;84;21073;-86
2022/10/01 13:35:34;;;;;;;27.73;16.17;;;;;;;14.65;100.00;98392.63;4149678;84;20446;-85
2022/10/01 13:41:39;;;;;;;22.58;17.05;;;;;;;14.65;100.00;98385.75;4156073;84;21864;-85
2022/10/01 13:47:42;;;;;;;24.35;18.75;;;;;;;14.67;100.00;98381.98;4154595;84;21563;-85
2022/10/01 13:53:56;;;;;;;27.37;19.75;;;;;;;14.66;100.00;98378.44;4145494;84;22000;-85
2022/10/01 14:00:12;;;;;;;26.37;19.80;;;;;;;14.63;100.00;98372.98;4153584;84;21096;-85
2022/10/01 14:06:46;;;;;;;24.12;18.30;;;;;;;14.63;100.00;98364.72;4145888;84;21891;-85
2022/10/01 14:25:36;;;;;;;24.80;17.20;;;;;;;14.56;100.00;98342.22;4148490;84;20978;-85
2022/10/01 14:31:58;;;;;;;25.70;17.25;;;;;;;14.47;100.00;98343.31;4153037;83;21041;-85
2022/10/01 14:38:06;;;;;;;21.77;16.65;;;;;;;14.41;100.00;98322.95;4104623;84;21006;-86
2022/10/01 14:44:27;;;;;;;23.05;17.73;;;;;;;14.39;100.00;98336.96;4144806;83;20982;-85
2022/10/01 14:50:34;;;;;;;23.42;17.27;;;;;;;14.31;100.00;98318.98;4097659;86;21056;-85
2022/10/01 14:56:37;;;;;;;27.60;20.20;;;;;;;14.21;100.00;98323.41;4183054;83;21041;-85
2022/10/01 15:03:08;;;;;;;25.68;19.48;;;;;;;14.19;100.00;98314.20;4197078;83;21068;-85
2022/10/01 15:09:17;;;;;;;28.20;19.40;;;;;;;14.17;100.00;98319.94;4218792;82;21954;-85
2022/10/01 15:15:22;;;;;;;33.30;21.02;;;;;;;14.15;100.00;98310.72;4244970;82;21076;-85
2022/10/01 15:21:39;;;;;;;26.93;19.27;;;;;;;14.12;100.00;98305.27;4231356;83;20972;-85
2022/10/01 15:27:40;;;;;;;26.02;19.30;;;;;;;14.00;100.00;98307.97;4294448;83;21036;-85
2022/10/01 15:33:42;;;;;;;34.83;23.52;;;;;;;13.91;100.00;98313.20;4245762;83;21064;-86
2022/10/01 15:39:50;;;;;;;38.42;24.95;;;;;;;13.82;100.00;98320.40;4256801;83;21016;-85
2022/10/01 15:46:12;;;;;;;37.65;25.72;;;;;;;13.75;100.00;98317.13;4174353;84;21614;-85
2022/10/01 15:58:37;;;;;;;37.65;24.95;;;;;;;13.78;100.00;98300.42;4153722;83;21075;-84
2022/10/01 16:04:39;;;;;;;37.42;25.25;;;;;;;13.73;100.00;98300.87;4154899;84;21117;-85
2022/10/01 16:10:41;;;;;;;42.53;27.10;;;;;;;13.66;100.00;98291.31;4155145;84;21513;-85
2022/10/01 16:16:42;;;;;;;41.13;25.92;;;;;;;13.64;100.00;98290.97;4161183;84;21025;-85
2022/10/01 16:22:43;;;;;;;41.88;28.73;;;;;;;13.49;100.00;98293.10;4147658;83;21636;-85
2022/10/01 16:28:45;;;;;;;42.40;27.95;;;;;;;13.39;100.00;98293.23;4202262;84;20989;-85
2022/10/01 16:34:46;;;;;;;45.60;29.67;;;;;;;13.27;100.00;98295.11;4147969;83;20989;-85
2022/10/01 16:40:49;;;;;;;46.40;30.60;;;;;;;13.28;100.00;98293.94;4137014;84;21473;-85
2022/10/01 16:46:51;;;;;;;49.67;32.03;;;;;;;13.17;100.00;98299.53;4167837;84;21006;-85
2022/10/01 16:52:54;;;;;;;49.00;32.42;;;;;;;13.16;100.00;98295.23;4153406;84;21534;-85
2022/10/01 16:58:56;;;;;;;55.10;32.35;;;;;;;13.14;100.00;98291.34;4146671;84;21005;-85
2022/10/01 17:04:59;;;;;;;55.40;35.95;;;;;;;13.06;100.00;98293.97;4146025;84;20974;-85
2022/10/01 17:11:02;;;;;;;48.87;33.90;;;;;;;12.98;100.00;98278.71;4146367;83;20994;-85
2022/10/01 17:17:05;;;;;;;55.73;34.65;;;;;;;12.93;100.00;98264.83;4149314;84;21109;-85
2022/10/01 17:23:06;;;;;;;56.18;34.30;;;;;;;12.88;100.00;98275.45;4147805;84;21895;-85
2022/10/01 17:29:11;;;;;;;51.85;33.45;;;;;;;12.85;100.00;98258.42;4165565;84;21050;-85
2022/10/01 17:35:15;;;;;;;51.90;34.38;;;;;;;12.81;100.00;98257.69;4174387;83;21005;-83
2022/10/01 17:41:17;;;;;;;47.17;31.42;;;;;;;12.81;100.00;98248.84;4150587;84;21002;-85
2022/10/01 17:47:24;;;;;;;49.63;33.55;;;;;;;12.78;100.00;98241.41;4151580;84;21018;-84
2022/10/01 17:53:28;;;;;;;46.75;31.40;;;;;;;12.71;100.00;98240.13;4141618;84;21073;-85
2022/10/01 17:59:30;;;;;;;46.55;30.00;;;;;;;12.70;100.00;98239.91;4142638;84;21008;-85
2022/10/01 18:05:31;;;;;;;50.20;33.90;;;;;;;12.72;100.00;98232.06;4151324;84;21042;-85
2022/10/01 18:11:33;;;;;;;48.73;30.55;;;;;;;12.62;100.00;98230.97;4031070;81;10000051;-85
2022/10/01 18:17:35;;;;;;;43.25;27.87;;;;;;;12.65;100.00;98225.28;4125149;85;21018;-85
2022/10/01 18:23:36;;;;;;;34.27;22.87;;;;;;;12.60;100.00;98225.13;4148210;84;21065;-84
2022/10/01 18:29:38;;;;;;;21.82;15.08;;;;;;;12.58;100.00;98226.70;4145370;84;20986;-85
2022/10/01 18:35:42;;;;;;;18.75;11.05;;;;;;;12.58;100.00;98239.84;4188825;84;20989;-85
2022/10/01 18:41:47;;;;;;;11.55;8.60;;;;;;;12.57;100.00;98236.89;4152340;84;20990;-85
2022/10/01 18:47:54;;;;;;;11.57;8.50;;;;;;;12.57;100.00;98234.15;4149892;84;20981;-85
2022/10/01 18:54:30;;;;;;;13.35;9.13;;;;;;;12.58;100.00;98241.22;4143783;84;20990;-85
2022/10/01 19:00:50;;;;;;;16.82;8.23;;;;;;;12.56;100.00;98245.53;4140692;84;20981;-85
2022/10/01 19:07:11;;;;;;;15.80;8.55;;;;;;;12.50;100.00;98260.89;4034249;83;10000078;-85
2022/10/01 19:13:44;;;;;;;13.18;6.55;;;;;;;12.37;100.00;98303.14;4144790;84;21033;-86
2022/10/01 19:20:20;;;;;;;13.58;4.65;;;;;;;12.21;100.00;98317.97;4145362;84;21593;-85
2022/10/01 19:26:54;;;;;;;6.92;4.10;;;;;;;11.98;100.00;98329.27;4154233;84;21625;-86
2022/10/01 19:33:06;;;;;;;8.83;4.00;;;;;;;11.76;100.00;98338.16;4151628;84;21936;-85
2022/10/01 19:39:13;;;;;;;6.15;3.65;;;;;;;11.55;100.00;98349.19;4181924;84;20970;-86
2022/10/01 19:45:42;;;;;;;7.22;3.30;;;;;;;11.42;100.00;98352.16;4085974;86;21019;-86
2022/10/01 19:52:07;;;;;;;8.60;4.28;;;;;;;11.36;100.00;98361.17;4078122;86;21464;-86
2022/10/01 19:58:17;;;;;;;8.30;4.47;;;;;;;11.32;100.00;98369.42;4142371;84;21038;-85
2022/10/01 20:04:33;;;;;;;12.73;5.42;;;;;;;11.22;100.00;98374.31;4135346;84;21467;-84
2022/10/01 20:10:39;;;;;;;13.80;7.60;;;;;;;11.15;100.00;98383.14;4114078;85;21078;-85
2022/10/01 20:16:47;;;;;;;13.30;7.45;;;;;;;11.09;100.00;98390.95;4146400;83;21080;-85
2022/10/01 20:23:28;;;;;;;8.68;5.42;;;;;;;11.07;100.00;98391.34;4164299;84;21022;-86
2022/10/01 20:30:04;;;;;;;12.75;5.67;;;;;;;11.00;100.00;98394.10;4143141;84;21010;-86
2022/10/01 20:36:24;;;;;;;8.48;3.92;;;;;;;10.89;100.00;98392.52;4051580;84;21123;-85
2022/10/01 20:49:23;;;;;;;7.87;5.10;;;;;;;10.88;100.00;98398.58;4531201;77;23754;-85
2022/10/01 20:55:30;;;;;;;6.05;4.22;;;;;;;10.80;100.00;98400.35;4457374;78;20977;-86
2022/10/01 21:01:37;;;;;;;7.00;4.37;;;;;;;10.77;100.00;98399.16;4468651;78;20984;-85
2022/10/01 21:07:55;;;;;;;12.33;4.80;;;;;;;10.76;100.00;98411.87;4469364;78;22251;-85
2022/10/01 21:14:13;;;;;;;8.00;5.10;;;;;;;10.72;100.00;98404.25;4466869;78;21055;-85
2022/10/01 21:20:41;;;;;;;10.13;5.00;;;;;;;10.69;100.00;98410.51;4435111;78;21872;-84
2022/10/01 21:26:54;;;;;;;7.17;5.33;;;;;;;10.67;100.00;98402.69;4463252;78;20984;-85
2022/10/01 21:33:18;;;;;;;7.60;5.20;;;;;;;10.64;100.00;98406.20;4472074;78;21027;-85
2022/10/01 21:39:29;;;;;;;8.98;5.40;;;;;;;10.61;100.00;98403.45;4475101;78;21356;-85
2022/10/01 21:46:10;;;;;;;11.50;5.70;;;;;;;10.57;100.00;98408.92;4435650;78;21027;-85
2022/10/01 21:52:33;;;;;;;9.38;5.50;;;;;;;10.54;100.00;98425.35;4423264;79;21027;-85
2022/10/01 21:58:58;;;;;;;6.55;4.50;;;;;;;10.49;100.00;98425.72;4420391;79;20969;-85
2022/10/01 22:05:22;;;;;;;8.90;4.75;;;;;;;10.48;100.00;98430.98;4415564;79;21004;-85
2022/10/01 22:11:28;;;;;;;6.90;4.15;;;;;;;10.44;100.00;98427.47;4421736;79;21541;-85
2022/10/01 22:17:33;;;;;;;7.58;3.92;;;;;;;10.43;100.00;98428.05;4424507;79;22003;-85
2022/10/01 22:23:39;;;;;;;10.10;4.20;;;;;;;10.39;100.00;98431.37;4426102;79;21015;-85
2022/10/01 22:29:52;;;;;;;6.10;3.53;;;;;;;10.36;100.00;98434.88;4424698;79;21011;-85
2022/10/01 22:36:02;;;;;;;4.87;3.33;;;;;;;10.35;100.00;98436.63;4430181;78;21003;-85
2022/10/01 22:42:19;;;;;;;5.67;3.25;;;;;;;10.31;100.00;98432.52;4430968;79;21046;-85
2022/10/01 22:48:47;;;;;;;11.88;4.53;;;;;;;10.30;100.00;98443.27;4429686;79;21078;-85
2022/10/01 22:55:18;;;;;;;4.60;3.37;;;;;;;10.32;100.00;98442.88;4448861;79;21015;-86
2022/10/01 23:01:43;;;;;;;7.55;4.10;;;;;;;10.32;100.00;98449.72;4448529;79;20957;-85
2022/10/01 23:08:15;;;;;;;4.90;4.10;;;;;;;10.31;100.00;98455.77;4432534;78;20948;-84
2022/10/01 23:14:27;;;;;;;9.65;5.72;;;;;;;10.32;100.00;98450.48;4245016;82;22033;-84
2022/10/01 23:20:40;;;;;;;9.50;5.25;;;;;;;10.34;100.00;98445.99;4424588;79;20945;-85
2022/10/01 23:27:09;;;;;;;7.72;4.05;;;;;;;10.33;100.00;98452.06;4447711;79;20996;-85
2022/10/01 23:33:49;;;;;;;5.78;3.35;;;;;;;10.35;100.00;98460.65;4449158;78;21542;-85
2022/10/01 23:40:03;;;;;;;3.72;2.70;;;;;;;10.38;100.00;98461.85;4451548;79;20992;-84
2022/10/01 23:46:09;;;;;;;6.08;2.60;;;;;;;10.36;100.00;98470.45;4437899;79;21063;-85
2022/10/01 23:52:32;;;;;;;4.50;3.02;;;;;;;10.37;100.00;98472.58;4427695;79;21067;-85
2022/10/01 23:58:49;;;;;;;4.67;2.70;;;;;;;10.38;100.00;98475.53;4405354;79;21048;-86
